Time;durP1;ratioP1;P1;durP2;ratioP2;P2;SDS_P1;SDS_P2;PMS_P1;PMS_P2;Temp;Humidity;BMP_temperature;BMP_pressure;BME280_temperature;BME280_humidity;BME280_pressure;Samples;Min_cycle;Max_cycle;Signal;HPM_P1;HPM_P2
2022/08/09 00:01:26;;;;;;;7.28;4.13;;;;;;;27.50;43.12;99623.09;5133182;27;20110;-37
2022/08/09 00:03:52;;;;;;;5.65;3.95;;;;;;;27.59;41.71;99628.56;5133213;27;20102;-37
2022/08/09 00:06:17;;;;;;;7.38;4.15;;;;;;;26.96;43.25;99625.16;5132912;27;20023;-37
2022/08/09 00:08:47;;;;;;;5.88;3.70;;;;;;;26.90;42.54;99619.84;5132981;27;20027;-39
2022/08/09 00:11:13;;;;;;;7.03;4.07;;;;;;;27.03;41.10;99609.13;5133029;27;20452;-37
2022/08/09 00:13:39;;;;;;;6.50;3.70;;;;;;;27.29;40.36;99609.22;5133020;27;20134;-37
2022/08/09 00:16:04;;;;;;;7.47;3.30;;;;;;;27.40;39.47;99612.47;5132944;27;20478;-37
2022/08/09 00:18:31;;;;;;;8.38;3.67;;;;;;;27.04;40.08;99625.19;5132287;27;20063;-36
2022/08/09 00:20:56;;;;;;;7.15;3.67;;;;;;;27.01;39.96;99611.38;5132570;27;20015;-37
2022/08/09 00:23:22;;;;;;;6.13;3.33;;;;;;;26.90;40.29;99611.66;5132715;27;20027;-37
2022/08/09 00:25:47;;;;;;;6.20;3.35;;;;;;;27.29;39.52;99601.81;5132323;27;20043;-36
2022/08/09 00:28:13;;;;;;;5.25;3.53;;;;;;;27.22;39.77;99608.84;5132332;27;20030;-37
2022/08/09 00:30:38;;;;;;;8.55;3.60;;;;;;;26.85;40.61;99608.28;5132455;27;20111;-37
2022/08/09 00:33:04;;;;;;;5.35;3.65;;;;;;;26.70;41.17;99613.00;5132340;27;20019;-38
2022/08/09 00:35:29;;;;;;;4.43;3.65;;;;;;;26.93;40.97;99610.22;5132111;27;20052;-37
2022/08/09 00:37:55;;;;;;;5.80;3.70;;;;;;;27.17;40.39;99620.75;5132300;27;20024;-37
2022/08/09 00:40:20;;;;;;;7.30;3.78;;;;;;;27.07;40.23;99616.38;5132220;27;20019;-37
2022/08/09 00:42:46;;;;;;;6.07;3.60;;;;;;;26.66;41.34;99613.97;5132344;27;20023;-37
2022/08/09 00:45:11;;;;;;;6.03;3.60;;;;;;;26.71;41.14;99608.34;5132182;27;20517;-38
2022/08/09 00:47:37;;;;;;;4.20;3.38;;;;;;;26.87;40.71;99614.22;5132384;27;20071;-38
2022/08/09 00:50:02;;;;;;;7.82;3.83;;;;;;;27.09;39.60;99611.41;5131919;27;20023;-38
2022/08/09 00:52:29;;;;;;;6.10;3.80;;;;;;;26.88;39.88;99613.09;5132095;27;20027;-37
2022/08/09 00:54:55;;;;;;;4.68;3.30;;;;;;;26.66;39.98;99609.31;5132201;27;20433;-37
2022/08/09 00:57:21;;;;;;;4.32;3.20;;;;;;;26.62;39.81;99619.25;5131961;27;20023;-37
2022/08/09 00:59:47;;;;;;;4.82;3.30;;;;;;;26.77;39.03;99618.03;5131622;27;20129;-37
2022/08/09 01:02:25;;;;;;;9.52;3.80;;;;;;;27.25;38.39;99619.97;5132292;27;20110;-37
2022/08/09 01:04:59;;;;;;;4.57;3.50;;;;;;;26.74;39.26;99615.94;5131965;27;20100;-36
2022/08/09 01:07:52;;;;;;;7.10;3.33;;;;;;;26.61;39.55;99611.38;5131665;27;20027;-36
2022/08/09 01:10:30;;;;;;;4.38;3.28;;;;;;;26.52;39.46;99606.66;5131547;27;20505;-37
2022/08/09 01:13:23;;;;;;;8.38;3.95;;;;;;;26.71;39.39;99606.44;5132004;27;20023;-37
2022/08/09 01:15:52;;;;;;;5.00;3.60;;;;;;;26.78;39.36;99614.16;5131169;27;20035;-36
2022/08/09 01:18:27;;;;;;;4.78;3.80;;;;;;;26.35;39.72;99614.75;5131462;27;20031;-37
2022/08/09 01:21:16;;;;;;;4.80;3.40;;;;;;;26.35;39.73;99612.03;5131045;27;20102;-36
2022/08/09 01:24:08;;;;;;;5.43;3.50;;;;;;;26.31;39.74;99614.56;5131599;27;20109;-36
2022/08/09 01:26:51;;;;;;;7.80;3.35;;;;;;;26.84;38.51;99595.72;5131551;27;20055;-37
2022/08/09 01:29:27;;;;;;;4.70;3.20;;;;;;;26.25;39.78;99612.25;5131515;27;20135;-37
2022/08/09 01:31:57;;;;;;;3.83;3.30;;;;;;;26.16;39.57;99616.84;5131210;27;20027;-37
2022/08/09 01:34:24;;;;;;;5.68;3.08;;;;;;;26.21;38.84;99609.34;5131431;27;20141;-37
2022/08/09 01:36:52;;;;;;;5.10;3.13;;;;;;;26.33;38.08;99609.59;5131039;27;20099;-37
2022/08/09 01:39:20;;;;;;;4.93;2.95;;;;;;;26.82;37.16;99611.63;5131316;27;20031;-37
2022/08/09 01:41:47;;;;;;;6.88;3.00;;;;;;;26.20;38.40;99604.19;5131461;28;20031;-38
2022/08/09 01:44:15;;;;;;;4.53;3.33;;;;;;;26.04;39.34;99615.47;5131099;28;20128;-37
2022/08/09 01:46:42;;;;;;;5.38;3.22;;;;;;;26.06;39.76;99613.25;5131408;28;20034;-37
2022/08/09 01:49:19;;;;;;;6.38;3.50;;;;;;;26.33;39.50;99609.59;5131341;28;20019;-38
2022/08/09 01:51:53;;;;;;;7.13;3.80;;;;;;;26.45;39.53;99619.94;5131426;28;20034;-37
2022/08/09 01:54:26;;;;;;;6.28;3.47;;;;;;;25.95;41.03;99611.91;5131221;28;20015;-37
2022/08/09 01:56:54;;;;;;;7.20;3.95;;;;;;;25.96;41.78;99609.97;5131178;28;20023;-37
2022/08/09 01:59:21;;;;;;;4.93;3.95;;;;;;;26.08;41.96;99615.66;5130772;28;20054;-37
2022/08/09 02:01:51;;;;;;;6.93;3.92;;;;;;;26.05;41.89;99610.84;5131372;28;20031;-37
2022/08/09 02:04:18;;;;;;;5.95;3.97;;;;;;;25.93;42.81;99608.66;5130882;28;20030;-37
2022/08/09 02:09:33;;;;;;;7.68;4.38;;;;;;;25.91;43.29;99598.09;5131356;28;20103;-37
2022/08/09 02:12:02;;;;;;;8.43;4.30;;;;;;;26.11;42.81;99602.22;5131282;28;20355;-37
2022/08/09 02:14:27;;;;;;;;;;;;;;;26.58;42.06;99599.13;5131320;28;20031;-37
2022/08/09 02:16:55;;;;;;;9.98;4.82;;;;;;;25.97;43.48;99600.66;5131030;28;19907;-38
2022/08/09 02:19:21;;;;;;;12.07;4.97;;;;;;;25.75;44.10;99600.31;5130893;28;20034;-38
2022/08/09 02:21:51;;;;;;;7.47;4.80;;;;;;;25.88;43.85;99597.88;5131054;28;20038;-37
2022/08/09 02:24:21;;;;;;;6.70;5.10;;;;;;;26.00;43.61;99597.34;5131206;28;20141;-38
2022/08/09 02:26:51;;;;;;;8.48;5.03;;;;;;;26.31;42.78;99600.91;5130466;28;20058;-36
2022/08/09 02:29:26;;;;;;;7.95;5.20;;;;;;;25.54;44.25;99583.63;5130653;28;20023;-37
2022/08/09 02:32:02;;;;;;;8.75;5.10;;;;;;;25.77;43.93;99610.13;5130987;28;20023;-37
2022/08/09 02:34:31;;;;;;;11.30;5.32;;;;;;;25.96;43.34;99604.53;5130755;28;20031;-37
2022/08/09 02:36:58;;;;;;;;;;;;;;;26.38;42.35;99603.19;5130913;28;20121;-37
2022/08/09 02:39:54;;;;;;;9.38;5.22;;;;;;;26.37;42.19;99604.31;5130864;27;20086;-38
2022/08/09 02:42:26;;;;;;;6.30;5.00;;;;;;;25.80;43.34;99596.69;5130866;28;20042;-38
2022/08/09 02:45:00;;;;;;;6.47;5.00;;;;;;;25.90;43.18;99601.88;5130826;28;20198;-38
2022/08/09 02:47:28;;;;;;;6.28;4.85;;;;;;;25.99;42.94;99602.00;5131464;27;20025;-38
2022/08/09 02:49:58;;;;;;;7.88;4.85;;;;;;;26.51;41.87;99602.28;5134576;27;20019;-38
2022/08/09 02:52:30;;;;;;;5.55;4.25;;;;;;;26.12;42.65;99609.31;5134335;27;20023;-37
2022/08/09 02:54:57;;;;;;;5.50;4.10;;;;;;;25.81;43.25;99606.47;5134473;27;20023;-38
2022/08/09 02:57:25;;;;;;;5.15;3.60;;;;;;;26.00;42.69;99608.25;5133736;27;20031;-37
2022/08/09 02:59:52;;;;;;;4.22;3.53;;;;;;;25.88;42.91;99611.50;5134122;27;20127;-37
2022/08/09 03:02:19;;;;;;;5.53;4.20;;;;;;;26.39;41.81;99601.25;5134247;27;20023;-38
2022/08/09 03:04:46;;;;;;;8.07;3.80;;;;;;;25.79;42.47;99605.16;5134386;27;20023;-37
2022/08/09 03:07:13;;;;;;;7.25;3.83;;;;;;;25.51;42.88;99599.78;5133935;27;20047;-38
2022/08/09 03:09:40;;;;;;;8.13;3.50;;;;;;;25.45;41.96;99603.75;5133796;27;20183;-36
2022/08/09 03:12:07;;;;;;;8.63;3.63;;;;;;;25.71;41.50;99603.97;5134015;27;20027;-37
2022/08/09 03:14:33;;;;;;;32.53;26.42;;;;;;;25.95;41.03;99609.19;5133974;27;20034;-37
2022/08/09 03:17:01;;;;;;;11.30;6.85;;;;;;;25.66;41.27;99613.06;5134005;27;20054;-37
2022/08/09 03:19:28;;;;;;;5.68;4.50;;;;;;;25.56;41.22;99616.81;5133881;27;20023;-37
2022/08/09 03:21:55;;;;;;;7.40;3.67;;;;;;;25.44;40.84;99623.94;5133806;27;20442;-37
2022/08/09 03:24:21;;;;;;;11.38;7.18;;;;;;;25.60;40.40;99619.75;5133812;27;20031;-37
2022/08/09 03:26:47;;;;;;;14.15;10.65;;;;;;;26.08;39.41;99605.59;5133439;27;20062;-37
2022/08/09 03:29:14;;;;;;;5.10;3.10;;;;;;;25.62;40.10;99603.91;5133527;27;20435;-38
2022/08/09 03:31:41;;;;;;;4.47;3.03;;;;;;;25.60;40.11;99600.66;5133839;27;20099;-37
2022/08/09 03:34:08;;;;;;;5.82;3.00;;;;;;;25.78;39.89;99607.09;5133650;27;20027;-38
2022/08/09 03:36:35;;;;;;;4.18;2.90;;;;;;;25.82;39.81;99613.53;5133412;27;20020;-38
2022/08/09 03:39:02;;;;;;;4.13;3.20;;;;;;;26.17;39.01;99610.28;5133137;27;20050;-37
2022/08/09 03:41:28;;;;;;;6.00;3.10;;;;;;;25.51;40.53;99600.63;5133512;27;20019;-38
2022/08/09 03:43:54;;;;;;;5.80;3.35;;;;;;;25.45;40.49;99603.75;5133571;27;20413;-36
2022/08/09 03:46:19;;;;;;;5.72;3.40;;;;;;;25.37;40.97;99602.53;5133479;27;20054;-36
2022/08/09 03:48:49;;;;;;;8.77;3.38;;;;;;;25.58;40.60;99600.19;5114530;27;20475;-37
2022/08/09 03:51:15;;;;;;;4.68;3.20;;;;;;;26.34;38.96;99604.94;5133101;27;20027;-38
2022/08/09 03:53:41;;;;;;;7.20;3.63;;;;;;;25.75;40.39;99605.78;5133255;27;20038;-36
2022/08/09 03:56:07;;;;;;;10.93;6.88;;;;;;;25.45;41.19;99609.19;5133174;27;20030;-37
2022/08/09 03:58:33;;;;;;;11.30;6.60;;;;;;;25.40;41.82;99606.56;5132465;27;20419;-37
2022/08/09 04:00:59;;;;;;;8.25;4.35;;;;;;;25.74;41.23;99603.34;5132329;27;20087;-37
2022/08/09 04:03:25;;;;;;;8.10;4.00;;;;;;;26.11;40.02;99602.22;5133025;27;20032;-37
2022/08/09 04:05:51;;;;;;;5.50;3.83;;;;;;;25.99;40.53;99603.88;5133032;27;20478;-37
2022/08/09 04:08:16;;;;;;;6.20;3.55;;;;;;;26.05;40.45;99600.75;5132434;27;20139;-38
2022/08/09 04:10:42;;;;;;;4.05;3.30;;;;;;;26.16;39.59;99611.38;5133077;27;20478;-37
2022/08/09 04:13:11;;;;;;;8.18;4.00;;;;;;;26.42;38.80;99606.91;5132267;27;20023;-37
2022/08/09 04:15:38;;;;;;;6.72;4.50;;;;;;;27.17;37.68;99603.53;5132852;27;20027;-37
2022/08/09 04:18:05;;;;;;;8.00;4.00;;;;;;;27.10;37.42;99604.00;5132551;27;20027;-37
2022/08/09 04:20:30;;;;;;;8.27;3.45;;;;;;;27.24;37.21;99599.22;5132944;27;20034;-37
2022/08/09 04:22:55;;;;;;;6.85;3.72;;;;;;;27.29;37.05;99596.38;5132405;27;20023;-37
2022/08/09 04:25:21;;;;;;;11.05;4.05;;;;;;;27.56;36.68;99590.94;5132363;27;20027;-37
2022/08/09 04:27:46;;;;;;;10.40;4.72;;;;;;;27.65;36.18;99591.75;5132436;27;20023;-37
2022/08/09 04:30:15;;;;;;;6.53;3.70;;;;;;;27.56;36.27;99588.22;5132412;27;20045;-37
2022/08/09 04:32:41;;;;;;;5.90;3.70;;;;;;;27.88;35.65;99589.66;5132165;27;20019;-37
2022/08/09 04:35:09;;;;;;;7.38;3.30;;;;;;;28.16;35.20;99579.19;5132304;27;20464;-37
2022/08/09 04:37:35;;;;;;;4.40;3.28;;;;;;;28.50;34.45;99580.19;5132602;27;20028;-36
2022/08/09 04:40:01;;;;;;;5.32;3.50;;;;;;;28.89;33.75;99583.78;5132285;27;20031;-38
2022/08/09 04:42:28;;;;;;;9.60;3.88;;;;;;;28.33;34.71;99589.28;5132355;27;20126;-37
2022/08/09 04:44:58;;;;;;;7.32;3.65;;;;;;;28.45;34.50;99600.34;5132118;27;20154;-37
2022/08/09 04:47:24;;;;;;;8.13;3.60;;;;;;;28.55;34.34;99596.47;5132264;27;20077;-38
2022/08/09 04:49:50;;;;;;;10.88;3.83;;;;;;;28.89;33.90;99594.72;5131632;27;20026;-38
2022/08/09 04:52:17;;;;;;;11.98;3.33;;;;;;;29.90;32.08;99606.84;5131703;27;20027;-37
2022/08/09 04:54:43;;;;;;;5.25;3.28;;;;;;;29.56;32.38;99603.22;5131883;27;20414;-38
2022/08/09 04:57:09;;;;;;;6.60;3.33;;;;;;;29.26;32.78;99606.00;5131750;27;20080;-37
2022/08/09 04:59:34;;;;;;;6.50;3.50;;;;;;;29.70;32.37;99600.19;5131574;27;20027;-38
2022/08/09 05:02:00;;;;;;;5.18;3.22;;;;;;;30.19;31.88;99597.69;5131679;27;20101;-37
2022/08/09 05:04:26;;;;;;;5.53;3.20;;;;;;;30.99;30.58;99597.25;5131316;27;20125;-37
2022/08/09 05:06:51;;;;;;;5.13;3.20;;;;;;;30.78;31.19;99597.34;5131361;27;20107;-37
2022/08/09 05:09:17;;;;;;;5.97;3.42;;;;;;;30.53;31.54;99601.22;5131665;27;20015;-37
2022/08/09 05:11:42;;;;;;;5.22;3.35;;;;;;;30.82;31.28;99597.47;5130745;27;20023;-37
2022/08/09 05:14:08;;;;;;;5.63;3.50;;;;;;;31.15;30.57;99594.63;5131581;27;20102;-36
2022/08/09 05:16:34;;;;;;;7.68;3.42;;;;;;;30.86;30.92;99603.88;5131063;27;20508;-37
2022/08/09 05:19:00;;;;;;;5.95;3.72;;;;;;;30.81;31.46;99604.13;5131152;27;20078;-37
2022/08/09 05:21:26;;;;;;;6.50;3.60;;;;;;;31.17;30.97;99597.81;5131566;27;20462;-37
2022/08/09 05:23:52;;;;;;;5.90;3.40;;;;;;;31.91;29.75;99599.59;5131096;27;20020;-38
2022/08/09 05:26:17;;;;;;;8.98;3.28;;;;;;;32.11;29.33;99604.13;5130613;27;20050;-38
2022/08/09 05:28:43;;;;;;;8.80;3.55;;;;;;;32.05;29.52;99607.50;5131226;27;20012;-37
2022/08/09 05:31:08;;;;;;;9.50;4.15;;;;;;;32.26;29.08;99604.50;5131729;27;20099;-37
2022/08/09 05:33:34;;;;;;;5.22;3.80;;;;;;;32.70;28.12;99604.47;5131157;27;20019;-37
2022/08/09 05:36:00;;;;;;;7.63;3.65;;;;;;;32.68;27.99;99602.06;5131701;27;20458;-37
2022/08/09 05:38:26;;;;;;;6.35;3.47;;;;;;;32.54;28.73;99609.97;5130771;27;20501;-37
2022/08/09 05:40:51;;;;;;;5.88;3.72;;;;;;;32.50;28.67;99604.38;5131082;27;20027;-37
2022/08/09 05:43:17;;;;;;;12.95;4.30;;;;;;;33.08;27.82;99606.56;5131038;27;20076;-37
2022/08/09 05:45:42;;;;;;;11.18;7.03;;;;;;;34.10;27.22;99602.06;5131038;27;20027;-37
2022/08/09 05:48:08;;;;;;;5.30;3.75;;;;;;;33.69;27.17;99609.91;5130468;27;20572;-40
2022/08/09 05:50:33;;;;;;;6.18;3.65;;;;;;;33.71;27.21;99604.03;5131437;28;20019;-40
2022/08/09 05:52:58;;;;;;;5.25;3.60;;;;;;;33.83;27.16;99612.16;5131398;28;20023;-37
2022/08/09 05:55:24;;;;;;;9.52;4.10;;;;;;;34.46;26.34;99610.97;5131076;28;20498;-37
2022/08/09 05:57:50;;;;;;;7.82;4.22;;;;;;;34.03;26.53;99608.22;5130747;28;20019;-37
2022/08/09 06:00:16;;;;;;;8.60;4.47;;;;;;;33.97;27.01;99617.19;5130913;28;20016;-37
2022/08/09 06:02:41;;;;;;;7.90;4.63;;;;;;;33.97;26.62;99617.19;5131265;28;20064;-37
2022/08/09 06:05:07;;;;;;;8.68;4.00;;;;;;;33.91;26.61;99613.09;5131507;28;20033;-38
2022/08/09 06:07:34;;;;;;;11.10;4.60;;;;;;;33.91;26.64;99604.81;5130664;28;20015;-37
2022/08/09 06:10:00;;;;;;;12.40;4.70;;;;;;;34.00;26.60;99605.38;5130420;28;20138;-37
2022/08/09 06:12:25;;;;;;;6.93;3.75;;;;;;;34.38;26.62;99606.50;5131113;28;20091;-36
2022/08/09 06:14:51;;;;;;;11.55;4.32;;;;;;;34.45;26.35;99612.16;5131093;28;20025;-37
2022/08/09 06:17:16;;;;;;;6.63;3.50;;;;;;;34.57;25.38;99609.22;5130720;28;20394;-37
2022/08/09 06:19:42;;;;;;;12.50;6.35;;;;;;;34.28;26.26;99597.66;5130214;28;20482;-37
2022/08/09 06:22:07;;;;;;;16.45;9.88;;;;;;;34.08;26.34;99601.59;5131420;27;20027;-37
2022/08/09 06:24:32;;;;;;;8.02;4.00;;;;;;;34.30;26.38;99599.28;5135325;27;20028;-37
2022/08/09 06:26:58;;;;;;;7.47;3.67;;;;;;;34.01;26.41;99602.28;5135252;27;20051;-37
2022/08/09 06:29:24;;;;;;;10.98;4.00;;;;;;;34.63;25.64;99593.94;5134932;27;20406;-38
2022/08/09 06:31:49;;;;;;;9.93;3.55;;;;;;;34.89;25.49;99595.16;5134536;27;20083;-36
2022/08/09 06:34:15;;;;;;;8.75;3.30;;;;;;;35.35;24.68;99597.81;5135320;27;20027;-38
2022/08/09 06:36:40;;;;;;;5.13;3.30;;;;;;;35.66;23.82;99597.81;5135225;27;20528;-38
2022/08/09 06:39:09;;;;;;;8.00;3.33;;;;;;;35.42;24.22;99581.31;5134878;27;20057;-37
2022/08/09 06:41:35;;;;;;;4.05;3.35;;;;;;;35.90;23.63;99591.78;5134853;27;20031;-38
2022/08/09 06:44:01;;;;;;;6.28;3.65;;;;;;;35.75;23.70;99590.84;5116175;27;20016;-37
2022/08/09 06:46:26;;;;;;;7.00;4.40;;;;;;;36.26;23.47;99589.44;5134538;27;20448;-37
2022/08/09 06:48:52;;;;;;;11.50;5.45;;;;;;;36.06;23.80;99594.31;5134796;27;20098;-38
2022/08/09 06:51:17;;;;;;;8.60;6.00;;;;;;;36.09;23.46;99587.25;5134692;27;20011;-37
2022/08/09 06:53:42;;;;;;;12.23;7.07;;;;;;;35.58;23.85;99586.66;5135271;27;20452;-38
2022/08/09 06:56:08;;;;;;;13.30;7.45;;;;;;;35.01;23.83;99589.44;5134826;27;20027;-37
2022/08/09 06:58:33;;;;;;;10.70;7.50;;;;;;;35.01;24.47;99585.84;5144547;27;20026;-37
2022/08/09 07:00:59;;;;;;;10.00;6.95;;;;;;;35.49;24.22;99577.84;5154889;27;20385;-37
2022/08/09 07:03:25;;;;;;;12.00;7.10;;;;;;;36.30;23.18;99581.94;5154271;27;20401;-37
2022/08/09 07:05:50;;;;;;;8.90;6.40;;;;;;;36.16;23.12;99592.88;5154944;27;20545;-37
2022/08/09 07:08:16;;;;;;;8.15;5.70;;;;;;;36.88;22.09;99588.78;5154351;27;20436;-35
2022/08/09 07:10:42;;;;;;;7.70;5.60;;;;;;;36.50;22.80;99598.34;5154436;27;20067;-37
2022/08/09 07:13:07;;;;;;;12.25;5.65;;;;;;;36.91;22.64;99595.53;5154391;27;20023;-37
2022/08/09 07:15:33;;;;;;;13.38;5.60;;;;;;;37.00;22.49;99589.66;5154679;27;20054;-38
2022/08/09 07:17:58;;;;;;;13.93;5.75;;;;;;;37.05;22.46;99590.09;5154996;27;20038;-37
2022/08/09 07:20:24;;;;;;;9.88;4.82;;;;;;;37.03;22.36;99597.19;5154186;27;20026;-37
2022/08/09 07:22:51;;;;;;;8.77;4.82;;;;;;;35.91;23.50;99589.81;5154484;27;20078;-37
2022/08/09 07:25:16;;;;;;;7.18;4.50;;;;;;;35.98;22.89;99587.91;5154074;27;20022;-37
2022/08/09 07:27:42;;;;;;;9.57;5.10;;;;;;;36.53;22.73;99592.03;5154762;27;20023;-37
2022/08/09 07:30:08;;;;;;;8.07;4.60;;;;;;;36.86;22.27;99593.94;5154250;27;20033;-37
2022/08/09 07:32:34;;;;;;;8.80;4.18;;;;;;;37.40;22.03;99599.03;5154266;27;20019;-37
2022/08/09 07:35:04;;;;;;;7.22;4.00;;;;;;;37.81;21.61;99596.81;5153230;27;20040;-37
2022/08/09 07:37:29;;;;;;;6.95;4.30;;;;;;;38.11;21.38;99598.50;5153867;27;20027;-38
2022/08/09 07:39:55;;;;;;;5.70;3.95;;;;;;;38.42;21.07;99598.94;5154114;27;20023;-38
2022/08/09 07:42:22;;;;;;;5.25;4.20;;;;;;;38.21;20.97;99605.28;5154180;27;20046;-36
2022/08/09 07:44:48;;;;;;;10.90;3.90;;;;;;;38.38;20.62;99601.72;5153878;27;20488;-38
2022/08/09 07:47:13;;;;;;;5.75;4.00;;;;;;;38.81;20.27;99598.19;5153769;27;20102;-37
2022/08/09 07:49:39;;;;;;;8.85;3.92;;;;;;;38.30;20.24;99600.91;5153916;27;20040;-37
2022/08/09 07:52:04;;;;;;;9.95;3.95;;;;;;;38.59;19.96;99586.28;5154294;27;20021;-36
2022/08/09 07:54:30;;;;;;;8.65;3.80;;;;;;;39.20;20.47;99591.78;5153800;27;20029;-38
2022/08/09 07:56:56;;;;;;;6.60;4.03;;;;;;;39.48;19.34;99591.69;5153207;27;20038;-37
2022/08/09 07:59:21;;;;;;;5.07;3.83;;;;;;;40.08;19.13;99594.63;5153549;27;20446;-38
2022/08/09 08:01:46;;;;;;;8.05;4.05;;;;;;;39.14;19.53;99590.59;5153815;27;20145;-38
2022/08/09 08:04:12;;;;;;;4.75;3.30;;;;;;;38.92;18.49;99591.41;5153652;27;20010;-36
2022/08/09 08:06:37;;;;;;;7.35;3.60;;;;;;;39.12;18.62;99591.00;5153696;27;20067;-37
2022/08/09 08:09:03;;;;;;;5.72;3.55;;;;;;;39.93;18.15;99599.47;5153442;27;20409;-37
2022/08/09 08:11:28;;;;;;;6.47;3.30;;;;;;;39.67;17.93;99600.78;5153710;27;20022;-37
2022/08/09 08:13:53;;;;;;;6.57;3.10;;;;;;;39.66;17.83;99591.63;5153477;27;20409;-37
2022/08/09 08:16:19;;;;;;;7.43;3.20;;;;;;;40.30;17.93;99583.31;5134932;27;20019;-37
2022/08/09 08:18:44;;;;;;;7.47;3.60;;;;;;;40.54;16.83;99581.56;5152898;27;20409;-37
2022/08/09 08:21:10;;;;;;;7.68;2.88;;;;;;;40.32;16.37;99583.69;5153213;27;20405;-36
2022/08/09 08:23:35;;;;;;;7.45;2.85;;;;;;;39.62;16.05;99578.91;5153470;27;20045;-37
2022/08/09 08:26:01;;;;;;;5.78;3.00;;;;;;;39.42;16.56;99570.25;5153198;27;20176;-37
2022/08/09 08:28:26;;;;;;;5.35;3.20;;;;;;;39.91;16.36;99582.38;5153265;27;20101;-37
2022/08/09 08:30:52;;;;;;;5.50;3.15;;;;;;;39.91;16.81;99578.78;5153094;27;20476;-37
2022/08/09 08:33:17;;;;;;;5.22;3.00;;;;;;;39.63;16.92;99581.28;5153296;27;20023;-37
2022/08/09 08:35:43;;;;;;;5.05;3.10;;;;;;;39.58;17.11;99578.94;5153021;27;20022;-37
2022/08/09 08:38:08;;;;;;;6.60;3.03;;;;;;;40.21;16.65;99572.63;5152444;27;20022;-37
2022/08/09 08:40:33;;;;;;;5.50;3.30;;;;;;;40.53;16.30;99575.16;5152957;27;20105;-37
2022/08/09 08:43:02;;;;;;;5.45;3.40;;;;;;;40.18;16.54;99571.44;5153515;27;20022;-37
2022/08/09 08:45:36;;;;;;;;;;;;;;;39.97;16.76;99572.38;5153399;27;20069;-37
2022/08/09 08:48:03;;;;;;;7.38;3.30;;;;;;;40.09;15.89;99562.75;5152842;27;19907;-37
2022/08/09 08:50:28;;;;;;;5.73;2.70;;;;;;;40.13;15.73;99554.38;5152125;27;20075;-37
2022/08/09 08:52:54;;;;;;;5.93;3.55;;;;;;;39.74;15.95;99547.84;5152747;27;20018;-37
2022/08/09 08:55:20;;;;;;;8.57;3.00;;;;;;;39.72;16.56;99543.84;5152708;27;20038;-38
2022/08/09 08:57:46;;;;;;;4.15;2.95;;;;;;;39.79;16.06;99555.75;5149002;27;20015;-38
2022/08/09 09:00:12;;;;;;;7.45;2.90;;;;;;;39.36;16.51;99546.81;5131540;27;20072;-38
2022/08/09 09:02:38;;;;;;;7.07;2.72;;;;;;;38.95;16.50;99541.75;5131633;27;20381;-38
2022/08/09 09:05:04;;;;;;;4.72;2.70;;;;;;;38.77;16.31;99544.56;5131757;27;20034;-37
2022/08/09 09:07:32;;;;;;;6.95;2.97;;;;;;;38.05;16.98;99542.53;5131589;27;20019;-37
2022/08/09 09:10:02;;;;;;;5.57;3.03;;;;;;;37.97;17.64;99548.47;5131065;27;20057;-37
2022/08/09 09:12:30;;;;;;;6.57;2.83;;;;;;;38.60;17.91;99541.41;5131810;27;20027;-38
2022/08/09 09:14:58;;;;;;;7.40;2.88;;;;;;;39.05;17.66;99527.84;5131679;27;20055;-36
2022/08/09 09:17:23;;;;;;;;;;;;;;;39.61;15.76;99525.22;5132001;27;20031;-37
2022/08/09 09:19:49;;;;;;;4.85;2.80;;;;;;;39.98;15.91;99518.25;5131197;27;19918;-37
2022/08/09 09:22:18;;;;;;;5.97;2.80;;;;;;;39.84;16.10;99518.34;5131257;27;20033;-39
2022/08/09 09:24:49;;;;;;;7.72;2.80;;;;;;;39.28;15.67;99527.38;5131247;27;20442;-37
2022/08/09 09:27:21;;;;;;;6.32;2.80;;;;;;;38.51;16.52;99516.75;5130653;27;20047;-37
2022/08/09 09:29:47;;;;;;;7.20;3.10;;;;;;;38.49;16.73;99515.59;5131070;27;20023;-37
2022/08/09 09:32:22;;;;;;;4.38;3.40;;;;;;;39.07;17.04;99508.75;5130630;27;20071;-37
2022/08/09 09:35:08;;;;;;;8.02;2.88;;;;;;;39.43;16.35;99508.63;5131319;27;20478;-37
2022/08/09 09:37:34;;;;;;;3.80;2.50;;;;;;;39.32;15.59;99493.97;5131016;27;20101;-38
2022/08/09 09:40:00;;;;;;;4.95;2.60;;;;;;;39.60;15.51;99492.22;5130661;27;20479;-38
2022/08/09 09:42:28;;;;;;;3.83;2.50;;;;;;;39.23;15.22;99504.72;5130856;27;20040;-37
2022/08/09 09:44:58;;;;;;;4.97;2.60;;;;;;;38.10;16.74;99508.06;5130831;27;20023;-38
2022/08/09 09:47:25;;;;;;;5.32;2.60;;;;;;;38.12;17.18;99497.34;5130710;27;20034;-38
2022/08/09 09:49:53;;;;;;;4.28;2.40;;;;;;;38.02;16.87;99498.09;5130113;27;20027;-38
2022/08/09 09:52:20;;;;;;;3.80;2.45;;;;;;;37.98;16.89;99500.09;5130918;28;20193;-38
2022/08/09 09:54:46;;;;;;;6.25;2.83;;;;;;;37.83;16.77;99488.94;5130488;28;20023;-38
2022/08/09 09:57:20;;;;;;;7.47;2.80;;;;;;;38.57;15.91;99489.38;5131347;27;20054;-37
2022/08/09 09:59:47;;;;;;;7.90;2.60;;;;;;;38.57;15.62;99494.94;5134929;27;20042;-37
2022/08/09 10:02:14;;;;;;;2.63;1.80;;;;;;;38.11;14.88;99485.44;5134883;27;20080;-37
2022/08/09 10:04:41;;;;;;;6.75;2.50;;;;;;;36.79;15.75;99489.31;5134704;27;20379;-37
2022/08/09 10:07:26;;;;;;;9.63;1.80;;;;;;;36.97;15.31;99483.06;5134799;27;20023;-37
2022/08/09 10:09:54;;;;;;;5.00;2.08;;;;;;;37.64;15.01;99481.00;5134744;27;20066;-37
2022/08/09 10:12:29;;;;;;;6.32;2.42;;;;;;;37.40;15.47;99465.84;5134905;27;20027;-37
2022/08/09 10:15:07;;;;;;;7.82;2.33;;;;;;;36.96;15.18;99464.88;5134592;27;20449;-37
2022/08/09 10:17:34;;;;;;;6.55;2.00;;;;;;;37.06;15.21;99480.75;5134595;27;20020;-37
2022/08/09 10:20:20;;;;;;;4.47;2.15;;;;;;;36.97;14.99;99474.75;5134559;27;20372;-37
2022/08/09 10:22:47;;;;;;;10.65;2.22;;;;;;;36.95;15.66;99486.22;5134430;27;20039;-38
2022/08/09 10:25:13;;;;;;;7.75;2.40;;;;;;;36.73;15.82;99473.47;5134323;27;20059;-39
2022/08/09 10:27:40;;;;;;;7.35;2.92;;;;;;;36.49;16.41;99480.41;5134898;27;20146;-38
2022/08/09 10:30:07;;;;;;;3.83;2.30;;;;;;;36.49;16.46;99477.63;5134318;27;20034;-37
2022/08/09 10:32:33;;;;;;;6.80;2.75;;;;;;;36.28;16.38;99483.81;5134084;27;20030;-39
2022/08/09 10:34:59;;;;;;;5.65;2.40;;;;;;;36.03;16.74;99484.38;5134028;27;20363;-38
2022/08/09 10:37:25;;;;;;;5.57;2.40;;;;;;;35.98;17.50;99473.63;5133926;27;20022;-38
2022/08/09 10:39:51;;;;;;;13.52;2.47;;;;;;;36.39;17.34;99474.41;5133809;27;20461;-38
2022/08/09 10:42:18;;;;;;;6.18;2.40;;;;;;;36.74;17.34;99484.13;5133768;27;20030;-37
2022/08/09 10:44:53;;;;;;;5.68;2.65;;;;;;;36.63;17.97;99485.22;5133812;27;20030;-38
2022/08/09 10:47:37;;;;;;;8.82;2.60;;;;;;;36.50;17.64;99493.88;5133712;27;20412;-38
2022/08/09 10:51:05;;;;;;;7.40;2.90;;;;;;;35.89;18.62;99476.72;5133687;27;20021;-37
2022/08/09 10:53:31;;;;;;;6.90;3.00;;;;;;;35.74;19.23;99477.78;5133852;27;20023;-37
2022/08/09 10:56:16;;;;;;;6.97;2.60;;;;;;;35.86;19.04;99466.41;5133906;27;20031;-37
2022/08/09 10:58:41;;;;;;;3.85;2.60;;;;;;;36.46;18.31;99472.84;5133456;27;20114;-37
2022/08/09 11:01:32;;;;;;;6.80;2.67;;;;;;;36.51;18.00;99478.81;5133995;27;20109;-38
2022/08/09 11:04:07;;;;;;;6.20;2.50;;;;;;;35.98;18.61;99460.56;5133951;27;20450;-37
2022/08/09 11:06:34;;;;;;;7.50;2.70;;;;;;;35.57;18.30;99479.94;5134326;27;20211;-38
2022/08/09 11:09:00;;;;;;;4.13;2.50;;;;;;;35.74;18.41;99472.25;5133320;27;20479;-38
2022/08/09 11:11:58;;;;;;;6.55;2.72;;;;;;;35.93;18.06;99474.78;5134114;27;20275;-37
2022/08/09 11:14:31;;;;;;;4.90;2.42;;;;;;;35.84;18.42;99474.31;5133801;27;20024;-37
2022/08/09 11:16:56;;;;;;;3.90;2.45;;;;;;;36.06;18.23;99455.09;5133764;27;20015;-38
2022/08/09 11:19:53;;;;;;;6.57;2.38;;;;;;;36.89;18.16;99473.94;5133450;27;20019;-37
2022/08/09 11:22:19;;;;;;;5.57;2.78;;;;;;;36.86;18.67;99471.94;5133928;27;20030;-38
2022/08/09 11:25:12;;;;;;;7.07;3.10;;;;;;;36.05;19.13;99492.28;5133867;27;20106;-37
2022/08/09 11:27:43;;;;;;;6.55;3.42;;;;;;;35.84;19.42;99467.97;5133417;27;20047;-37
2022/08/09 11:30:14;;;;;;;7.18;2.90;;;;;;;35.87;19.36;99465.25;5133043;27;20038;-37
2022/08/09 11:32:42;;;;;;;11.00;3.28;;;;;;;35.90;20.13;99483.06;5133205;27;20069;-37
2022/08/09 11:35:16;;;;;;;5.40;2.80;;;;;;;36.27;19.11;99477.47;5133309;27;20023;-38
2022/08/09 11:37:43;;;;;;;5.32;3.55;;;;;;;36.09;19.79;99469.00;5133359;27;20060;-38
2022/08/09 11:40:14;;;;;;;9.48;4.03;;;;;;;36.14;19.25;99478.94;5132625;27;20101;-38
2022/08/09 11:42:49;;;;;;;15.70;4.10;;;;;;;36.50;19.13;99477.25;5133318;27;20023;-38